aviador You're here:

KEWN Decoded Metar

NEW BERN in NC, USA
Report Time2017-08-18 01:54:00
UTC Time2017-08-18 02:57:33
Flight Rules vfr VFR
Wind190° at 03 kt
W.Decomp.*RWY 22: 2.8 kt HW 1.1 kt LCW
RWY 14: 1.6 kt HW 2.5 kt RCW
W.Rank190° ranks 5
Current wind is below 190° avg. (6.8)
Visibility9999 m
Phenomena:N/A
Clouds:N/A
CeilingNone
Temp26°C (ISA +11)
Dew Point26°C (100% RH)
QNH1016 hPa
Density Alt1,621 ft
Elevation10 ft
Report Wrong Elevation
Raw Report
KEWN 180154Z AUTO 19003KT 9SM CLR 26/26 A3000 RMK AO2 SLP157
T02610261=

Extra information for KEWN:More info

Metar Taf Metar & Taf Last 4 Metars F.Rules Stats Wind Profile Meteogram Temp Stats Airport Information Weather charts Add Link Nearby VenuesMetar ALERT Operation Metar Decoded Social comments

AIRNAV info for KEWN